Time;durP1;ratioP1;P1;durP2;ratioP2;P2;SDS_P1;SDS_P2;PMS_P1;PMS_P2;Temp;Humidity;BMP_temperature;BMP_pressure;BME280_temperature;BME280_humidity;BME280_pressure;Samples;Min_cycle;Max_cycle;Signal;HPM_P1;HPM_P2
2021/05/28 00:01:42;;;;;;;79.20;32.60;;;;;;;10.75;79.53;100749.98;5121479;57;1142711;-70
2021/05/28 00:06:48;;;;;;;36.23;18.77;;;;;;;10.74;78.93;100754.91;5121141;56;1143201;-75
2021/05/28 00:11:54;;;;;;;35.67;18.63;;;;;;;10.76;78.64;100756.95;5121373;56;1143219;-72
2021/05/28 00:17:00;;;;;;;12.25;6.33;;;;;;;10.74;78.93;100746.13;5121166;56;1143180;-76
2021/05/28 00:22:06;;;;;;;28.95;11.22;;;;;;;10.65;78.54;100745.02;5121389;57;1140978;-72
2021/05/28 00:27:12;;;;;;;7.63;3.23;;;;;;;10.48;78.10;100752.88;5121315;56;1143494;-78
2021/05/28 00:32:17;;;;;;;9.97;4.70;;;;;;;10.20;78.33;100754.05;5121489;56;1139146;-77
2021/05/28 00:37:23;;;;;;;14.50;5.23;;;;;;;9.98;78.84;100755.64;5121187;56;1138792;-76
2021/05/28 00:42:29;;;;;;;5.10;3.37;;;;;;;9.82;79.17;100758.05;5121298;56;1139077;-72
2021/05/28 00:47:36;;;;;;;4.80;2.60;;;;;;;9.73;79.37;100760.03;5121762;56;1137097;-74
2021/05/28 00:52:42;;;;;;;17.63;6.93;;;;;;;9.66;79.66;100762.72;5121591;56;1137083;-76
2021/05/28 00:57:48;;;;;;;3.43;2.97;;;;;;;9.59;79.90;100764.12;5121608;56;1139143;-79
2021/05/28 01:02:57;;;;;;;10.70;4.33;;;;;;;9.67;80.40;100758.28;5122063;56;1136849;-76
2021/05/28 01:08:04;;;;;;;5.55;3.27;;;;;;;9.72;80.16;100757.50;5121563;56;1139047;-77
2021/05/28 01:13:12;;;;;;;2.40;2.27;;;;;;;9.71;80.07;100757.97;5121631;56;1136896;-77
2021/05/28 01:18:18;;;;;;;4.77;4.33;;;;;;;9.66;80.25;100760.55;5121733;56;1136945;-79
2021/05/28 01:23:23;;;;;;;13.87;10.10;;;;;;;9.62;80.53;100755.98;5074936;56;1136930;-77
2021/05/28 01:28:29;;;;;;;9.73;3.70;;;;;;;9.67;80.71;100760.92;5084437;57;1140936;-79
2021/05/28 01:33:40;;;;;;;14.28;6.05;;;;;;;9.71;80.73;100754.02;5121306;56;1137075;-74
2021/05/28 01:38:47;;;;;;;5.90;3.63;;;;;;;9.83;80.68;100763.70;5121164;56;1138875;-72
2021/05/28 01:43:53;;;;;;;6.60;3.98;;;;;;;9.78;80.38;100771.10;5121447;57;1136998;-72
2021/05/28 01:48:59;;;;;;;3.40;2.80;;;;;;;9.70;80.50;100765.52;5121406;56;1137097;-75
2021/05/28 01:54:06;;;;;;;2.75;2.52;;;;;;;9.71;80.88;100764.58;5105671;56;1136828;-75
2021/05/28 01:59:21;;;;;;;7.47;3.07;;;;;;;9.72;80.78;100762.30;5095795;56;1136563;-75
2021/05/28 02:04:27;;;;;;;6.70;3.07;;;;;;;9.77;80.98;100756.23;5095916;56;1136563;-74
2021/05/28 02:09:33;;;;;;;4.12;2.80;;;;;;;9.78;81.46;100755.25;5095983;56;1136519;-75
2021/05/28 02:14:39;;;;;;;7.97;4.30;;;;;;;9.78;81.09;100767.61;5096077;56;1136454;-76
2021/05/28 02:19:45;;;;;;;8.03;3.80;;;;;;;9.74;81.13;100768.33;5095971;56;1136430;-76
2021/05/28 02:24:51;;;;;;;4.27;3.10;;;;;;;9.67;81.41;100780.73;5116426;56;1136576;-78
2021/05/28 02:29:57;;;;;;;8.18;4.62;;;;;;;9.58;81.78;100777.42;5096786;56;1136606;-78
2021/05/28 02:35:05;;;;;;;5.92;3.42;;;;;;;9.57;81.95;100778.38;5096301;56;1136552;-72
2021/05/28 02:40:11;;;;;;;8.50;2.85;;;;;;;9.63;82.07;100773.97;5096304;56;1136879;-73
2021/05/28 02:45:19;;;;;;;8.43;3.20;;;;;;;9.68;82.23;100783.27;5096418;56;1137301;-74
2021/05/28 02:50:25;;;;;;;6.00;3.27;;;;;;;9.62;82.42;100781.08;5096256;56;1136976;-75
2021/05/28 02:55:32;;;;;;;11.27;3.70;;;;;;;9.61;82.78;100789.95;5111006;56;1136798;-76
2021/05/28 03:00:39;;;;;;;8.00;4.53;;;;;;;9.65;82.88;100798.00;5121470;56;1138702;-76
2021/05/28 03:05:44;;;;;;;6.90;4.83;;;;;;;9.68;83.45;100800.91;5122096;57;1137051;-76
2021/05/28 03:10:50;;;;;;;5.03;4.30;;;;;;;9.67;83.37;100798.74;5121606;56;1136735;-74
2021/05/28 03:15:56;;;;;;;4.25;3.33;;;;;;;9.75;83.51;100800.87;5121857;56;1136812;-72
2021/05/28 03:26:27;;;;;;;;;;;;;;;9.74;83.66;100802.67;5125425;56;1136583;-79
2021/05/28 03:31:32;;;;;;;4.47;3.50;;;;;;;9.77;83.94;100805.58;5134480;57;974105;-76
2021/05/28 03:36:38;;;;;;;4.03;3.10;;;;;;;9.78;84.39;100812.52;5122090;56;1134459;-71
2021/05/28 03:41:44;;;;;;;15.70;4.33;;;;;;;9.74;84.95;100811.06;5121803;56;1136534;-76
2021/05/28 03:46:50;;;;;;;7.10;3.93;;;;;;;9.72;85.27;100815.12;5121965;56;1138737;-72
2021/05/28 03:51:56;;;;;;;4.13;2.80;;;;;;;9.73;85.18;100817.30;5122299;56;1136750;-77
2021/05/28 03:57:02;;;;;;;2.87;2.53;;;;;;;9.74;85.87;100815.03;5122262;56;1136770;-77
2021/05/28 04:02:08;;;;;;;5.28;3.85;;;;;;;9.75;86.12;100814.92;5122084;56;1136559;-76
2021/05/28 04:07:14;;;;;;;9.10;3.23;;;;;;;9.79;86.33;100812.41;5124645;56;1136656;-76
2021/05/28 04:12:19;;;;;;;2.80;2.60;;;;;;;9.83;86.57;100816.54;5124409;57;1136559;-74
2021/05/28 04:17:25;;;;;;;5.77;3.60;;;;;;;9.84;86.79;100822.20;5123378;56;1136546;-77
2021/05/28 04:22:32;;;;;;;8.87;3.73;;;;;;;9.88;86.65;100814.43;5121078;56;1136816;-72
2021/05/28 04:27:38;;;;;;;4.10;3.70;;;;;;;9.96;86.65;100812.55;5121008;56;1136908;-75
2021/05/28 04:32:44;;;;;;;4.87;3.98;;;;;;;10.05;86.55;100821.17;5120898;57;1136574;-77
2021/05/28 04:37:50;;;;;;;6.15;4.83;;;;;;;10.10;86.54;100824.31;5120880;56;1138589;-74
2021/05/28 04:42:56;;;;;;;8.73;5.67;;;;;;;10.16;86.48;100819.94;5121242;56;1139131;-75
2021/05/28 04:48:02;;;;;;;8.18;4.42;;;;;;;10.25;86.42;100824.22;5121188;56;1139050;-74
2021/05/28 04:53:09;;;;;;;7.67;5.80;;;;;;;10.32;86.49;100825.00;5121235;56;1139028;-74
2021/05/28 04:58:15;;;;;;;10.60;6.43;;;;;;;10.33;86.42;100826.70;5110090;56;1139101;-78
2021/05/28 05:03:21;;;;;;;11.67;5.53;;;;;;;10.34;86.35;100832.83;5095499;56;1140897;-77
2021/05/28 05:08:27;;;;;;;13.30;7.10;;;;;;;10.37;86.52;100829.97;5095673;56;1140902;-73
2021/05/28 05:13:33;;;;;;;11.00;6.90;;;;;;;10.37;86.83;100841.39;5122017;55;1141112;-73
2021/05/28 05:18:39;;;;;;;7.97;6.10;;;;;;;10.38;87.04;100840.92;5178169;55;1140964;-72
2021/05/28 05:23:45;;;;;;;14.37;7.43;;;;;;;10.41;87.44;100850.77;5117529;55;1138607;-73
2021/05/28 05:28:52;;;;;;;11.73;8.50;;;;;;;10.45;87.21;100849.61;5127913;55;1141125;-75
2021/05/28 05:33:58;;;;;;;15.97;9.00;;;;;;;10.46;87.90;100852.62;5129838;55;1141290;-73
2021/05/28 05:39:05;;;;;;;12.53;9.33;;;;;;;10.45;87.77;100855.38;5132874;55;1140759;-72
2021/05/28 05:44:10;;;;;;;15.43;11.22;;;;;;;10.47;88.71;100859.60;5129429;55;1140640;-74
2021/05/28 05:49:17;;;;;;;11.53;8.30;;;;;;;10.45;88.59;100860.66;5184214;55;1142610;-72
2021/05/28 05:54:24;;;;;;;15.73;11.30;;;;;;;10.51;88.63;100861.55;5200807;55;1141107;-75
2021/05/28 05:59:31;;;;;;;19.63;13.83;;;;;;;10.51;88.70;100863.72;5168500;55;1143014;-76
2021/05/28 06:04:38;;;;;;;32.13;17.13;;;;;;;10.55;88.84;100856.39;5180090;55;1143220;-75
2021/05/28 06:09:43;;;;;;;23.17;16.07;;;;;;;10.60;88.64;100856.91;5173512;55;1142806;-73
2021/05/28 06:14:50;;;;;;;24.67;18.17;;;;;;;10.61;89.05;100862.57;5195847;55;1143124;-78
2021/05/28 06:19:57;;;;;;;30.60;16.70;;;;;;;10.64;89.17;100858.87;5225348;55;1146291;-75
2021/05/28 06:25:03;;;;;;;27.40;22.17;;;;;;;10.70;89.75;100867.66;5212984;55;1143113;-74
2021/05/28 06:30:11;;;;;;;25.43;17.40;;;;;;;10.74;89.54;100866.48;5150697;56;1143548;-81
2021/05/28 06:35:17;;;;;;;24.67;17.43;;;;;;;10.83;89.49;100868.48;5192591;55;1143347;-75
2021/05/28 06:40:23;;;;;;;15.70;12.20;;;;;;;10.84;90.17;100883.41;5239163;55;1142587;-74
2021/05/28 06:45:28;;;;;;;19.40;14.60;;;;;;;10.84;90.20;100884.73;5214030;55;1143311;-72
2021/05/28 06:50:34;;;;;;;18.17;12.73;;;;;;;10.85;89.96;100885.91;5186974;55;1142836;-75
2021/05/28 06:55:41;;;;;;;17.27;14.70;;;;;;;10.93;90.09;100889.34;5184093;55;1143161;-75
2021/05/28 07:00:47;;;;;;;18.13;13.07;;;;;;;10.98;89.89;100897.80;5190128;55;1142645;-73
2021/05/28 07:05:53;;;;;;;20.17;14.40;;;;;;;11.00;89.87;100899.01;5180916;55;1142752;-76
2021/05/28 07:10:59;;;;;;;17.73;15.80;;;;;;;11.01;89.85;100887.44;5188173;55;1142797;-73
2021/05/28 07:16:06;;;;;;;17.35;15.03;;;;;;;11.09;89.75;100889.05;5183675;55;1143248;-73
2021/05/28 07:21:13;;;;;;;16.30;13.40;;;;;;;11.13;89.87;100892.70;5173279;55;1143018;-73
2021/05/28 07:26:20;;;;;;;18.27;15.47;;;;;;;11.11;89.88;100893.28;5152630;56;1143651;-73
2021/05/28 07:31:26;;;;;;;14.20;12.33;;;;;;;11.14;89.87;100894.39;5152162;55;1143213;-78
2021/05/28 07:36:32;;;;;;;17.00;12.25;;;;;;;11.22;89.71;100903.07;5174412;55;1143394;-75
2021/05/28 07:41:38;;;;;;;16.23;14.53;;;;;;;11.26;89.75;100901.41;5222896;55;1143350;-74
2021/05/28 07:46:44;;;;;;;11.70;9.37;;;;;;;11.35;89.71;100906.49;5214799;55;1143093;-72
2021/05/28 07:51:51;;;;;;;14.50;8.90;;;;;;;11.41;89.49;100906.52;5213080;55;1141308;-70
2021/05/28 07:56:57;;;;;;;10.10;8.13;;;;;;;11.51;89.13;100916.30;5223080;55;1141105;-75
2021/05/28 08:02:04;;;;;;;10.44;9.44;;;;;;;11.59;88.73;100909.97;5122274;55;1141328;-75
2021/05/28 08:07:09;;;;;;;13.50;10.03;;;;;;;11.64;88.25;100911.77;5181032;55;1140982;-72
2021/05/28 08:12:15;;;;;;;10.53;9.50;;;;;;;11.72;88.32;100916.98;5194276;55;1143069;-74
2021/05/28 08:17:20;;;;;;;12.23;9.67;;;;;;;11.77;88.38;100914.84;5195440;55;1141232;-74
2021/05/28 08:22:27;;;;;;;12.27;10.50;;;;;;;11.86;88.47;100916.32;5202748;55;1141272;-73
2021/05/28 08:27:33;;;;;;;11.87;9.50;;;;;;;11.97;88.57;100911.52;5241313;55;1143147;-77
2021/05/28 08:32:38;;;;;;;13.40;10.37;;;;;;;12.08;88.14;100923.45;5242571;55;1141054;-80
2021/05/28 08:37:44;;;;;;;10.87;7.97;;;;;;;12.15;88.15;100920.70;5241704;55;1142984;-79
2021/05/28 08:42:50;;;;;;;13.77;10.70;;;;;;;12.23;87.89;100925.39;5242813;55;1140959;-75
2021/05/28 08:47:56;;;;;;;15.70;9.87;;;;;;;12.28;87.76;100929.38;5242249;55;1143093;-71
2021/05/28 08:53:04;;;;;;;9.78;6.15;;;;;;;12.42;87.40;100928.30;5242930;55;1141113;-73
2021/05/28 08:58:13;;;;;;;25.63;10.93;;;;;;;12.38;84.38;100930.81;5242919;55;1143775;-73
2021/05/28 09:03:22;;;;;;;7.77;3.87;;;;;;;12.32;85.10;100935.30;5241537;55;1143188;-76
2021/05/28 09:08:36;;;;;;;2.83;2.63;;;;;;;12.28;85.69;100940.47;5239010;55;1138785;-73
2021/05/28 09:13:51;;;;;;;1.40;1.30;;;;;;;12.19;85.79;100946.50;5239370;55;1138546;-74
2021/05/28 09:19:02;;;;;;;4.27;3.87;;;;;;;12.21;86.00;100953.38;5238855;55;1138619;-72
2021/05/28 09:24:09;;;;;;;3.17;2.05;;;;;;;12.23;86.04;100949.25;5239266;55;1138689;-72
2021/05/28 09:29:15;;;;;;;1.80;1.70;;;;;;;12.32;86.44;100945.91;5238008;55;1138571;-75
2021/05/28 09:34:29;;;;;;;1.40;1.40;;;;;;;12.57;86.39;100952.77;5239066;55;1138670;-72
2021/05/28 09:39:35;;;;;;;1.77;1.67;;;;;;;12.87;86.42;100951.66;5239260;55;1138423;-74
2021/05/28 09:44:40;;;;;;;1.80;1.77;;;;;;;13.12;85.82;100945.23;5216691;55;1138414;-74
2021/05/28 09:49:57;;;;;;;7.90;6.20;;;;;;;13.26;84.28;100951.62;5195507;55;1138465;-74
2021/05/28 09:55:18;;;;;;;2.10;1.90;;;;;;;13.28;83.64;100948.35;5192247;55;1138638;-72
2021/05/28 10:00:34;;;;;;;2.77;2.10;;;;;;;13.23;82.55;100946.55;5226693;55;1138447;-73
2021/05/28 10:05:44;;;;;;;1.80;1.70;;;;;;;13.17;82.63;100951.02;5239327;55;1138609;-75
2021/05/28 10:10:53;;;;;;;1.73;1.23;;;;;;;13.09;82.68;100952.59;5239886;55;1138745;-75
2021/05/28 10:15:59;;;;;;;2.70;1.53;;;;;;;13.06;83.03;100947.52;5240702;55;1138407;-71
2021/05/28 10:21:05;;;;;;;3.30;1.07;;;;;;;13.07;82.58;100946.55;5240150;55;1138647;-71
2021/05/28 10:26:12;;;;;;;1.05;1.02;;;;;;;13.11;83.50;100951.51;5189505;55;1138407;-73
2021/05/28 10:31:19;;;;;;;1.50;1.30;;;;;;;13.44;85.08;100929.33;5152511;55;1138448;-73
2021/05/28 10:36:45;;;;;;;3.20;0.87;;;;;;;13.44;85.08;100929.33;5152730;55;1138852;-73
2021/05/28 10:42:10;;;;;;;1.03;1.00;;;;;;;13.82;84.12;100932.75;5152337;56;1138907;-73
2021/05/28 10:47:19;;;;;;;0.90;0.90;;;;;;;13.98;81.37;100933.62;5151789;55;1138875;-74
2021/05/28 10:52:32;;;;;;;1.43;0.67;;;;;;;14.06;79.63;100933.31;5152690;55;1138924;-73
2021/05/28 10:57:53;;;;;;;1.07;1.03;;;;;;;14.17;77.22;100928.91;5153043;55;1138898;-74
2021/05/28 11:03:09;;;;;;;2.17;1.20;;;;;;;14.21;78.82;100928.49;5180235;55;1139326;-73
2021/05/28 11:08:42;;;;;;;2.20;0.80;;;;;;;14.35;77.54;100928.66;5133137;55;1148470;-74
2021/05/28 11:13:58;;;;;;;0.93;0.90;;;;;;;14.78;74.73;100919.95;5015603;56;1138635;-75
2021/05/28 11:19:09;;;;;;;1.17;1.17;;;;;;;14.84;75.52;100919.87;5014019;57;1139195;-73
2021/05/28 11:24:17;;;;;;;1.72;1.10;;;;;;;14.79;75.42;100911.47;5091947;56;1138636;-73
2021/05/28 11:29:24;;;;;;;0.90;0.90;;;;;;;14.84;76.16;100924.34;5097559;56;1138766;-73
2021/05/28 11:34:31;;;;;;;1.77;1.10;;;;;;;14.76;76.15;100929.04;5097380;56;1138438;-74
2021/05/28 11:39:39;;;;;;;1.70;1.60;;;;;;;14.64;75.01;100934.12;5057394;56;1138381;-73
2021/05/28 11:44:45;;;;;;;3.03;2.30;;;;;;;14.55;75.78;100936.23;5097200;56;1138613;-74
2021/05/28 11:49:51;;;;;;;2.03;1.93;;;;;;;14.49;75.37;100928.33;5058118;56;1138395;-74
2021/05/28 11:55:13;;;;;;;1.82;1.52;;;;;;;14.46;74.37;100927.74;5097281;56;1138397;-74
2021/05/28 12:00:22;;;;;;;1.37;0.90;;;;;;;14.44;74.67;100933.20;5097540;56;1138506;-73
2021/05/28 12:05:40;;;;;;;2.73;0.80;;;;;;;14.21;75.37;100939.13;5097246;56;1138351;-73
2021/05/28 12:10:54;;;;;;;1.00;0.70;;;;;;;13.78;77.23;100947.75;5090182;56;1138462;-73
2021/05/28 12:16:04;;;;;;;0.83;0.83;;;;;;;13.36;78.30;100959.66;5085286;56;1138380;-74
2021/05/28 12:21:15;;;;;;;1.10;1.10;;;;;;;13.06;80.61;100966.95;5085919;56;1139016;-75
2021/05/28 12:26:31;;;;;;;3.70;1.45;;;;;;;12.89;81.16;100972.77;5086385;56;1138579;-74
2021/05/28 12:31:42;;;;;;;1.30;0.77;;;;;;;12.88;83.86;100978.56;5085320;56;1138958;-74
2021/05/28 12:36:49;;;;;;;2.80;1.37;;;;;;;12.91;82.86;100975.67;5089240;56;1138886;-73
2021/05/28 12:41:55;;;;;;;1.10;1.10;;;;;;;12.89;84.53;100973.63;5094875;56;1139149;-73
2021/05/28 12:47:02;;;;;;;1.40;0.73;;;;;;;12.98;83.21;100968.07;5094668;56;1138894;-73
2021/05/28 12:52:16;;;;;;;3.12;1.72;;;;;;;13.08;83.24;100976.13;5094774;56;1138972;-75
2021/05/28 12:57:22;;;;;;;1.50;1.40;;;;;;;13.16;82.64;100973.72;5094607;56;1138860;-74
2021/05/28 13:02:30;;;;;;;3.20;0.73;;;;;;;13.16;82.33;100985.19;5094745;56;1138892;-74
2021/05/28 13:07:49;;;;;;;1.43;1.33;;;;;;;13.25;82.23;100980.47;5094821;56;1138933;-73
2021/05/28 13:13:03;;;;;;;1.27;1.00;;;;;;;13.27;81.92;100982.52;5168997;55;1138950;-73
2021/05/28 13:18:09;;;;;;;0.95;0.95;;;;;;;13.34;81.77;100985.50;5139714;55;1139518;-74
2021/05/28 13:23:28;;;;;;;0.85;0.85;;;;;;;13.45;81.51;100985.95;5151963;56;1138960;-74
2021/05/28 13:28:36;;;;;;;1.83;1.53;;;;;;;13.60;81.79;100993.50;5149452;55;1139145;-74
2021/05/28 13:33:44;;;;;;;2.80;1.07;;;;;;;13.80;81.59;100997.66;5165981;55;1139123;-74
2021/05/28 13:39:00;;;;;;;7.53;4.13;;;;;;;13.98;79.92;100994.79;5151784;56;1139348;-74
2021/05/28 13:44:19;;;;;;;1.70;1.60;;;;;;;14.04;80.23;100996.95;5152433;56;1138895;-74
2021/05/28 13:49:43;;;;;;;7.90;6.30;;;;;;;14.04;77.66;100998.27;5152265;56;1138812;-75
2021/05/28 13:55:07;;;;;;;8.90;6.57;;;;;;;14.06;78.06;100997.63;5150177;55;1138516;-74
2021/05/28 14:00:16;;;;;;;5.50;3.85;;;;;;;14.12;78.56;100990.96;5189284;55;1138558;-75
2021/05/28 14:05:23;;;;;;;3.75;1.40;;;;;;;14.25;78.04;101000.91;5217466;55;1138855;-76
2021/05/28 14:10:29;;;;;;;2.60;2.17;;;;;;;14.30;78.68;101000.88;5151854;56;1138395;-75
2021/05/28 14:15:35;;;;;;;3.20;1.70;;;;;;;14.39;78.64;100999.23;5174672;55;1138414;-75
2021/05/28 14:20:41;;;;;;;1.53;1.43;;;;;;;14.45;78.28;101002.75;5185330;55;1138669;-75
2021/05/28 14:25:47;;;;;;;4.53;1.70;;;;;;;14.42;77.52;101003.85;5192841;55;1138409;-74
2021/05/28 14:30:52;;;;;;;5.50;2.87;;;;;;;14.38;77.17;100995.73;5154128;56;1138464;-73
2021/05/28 14:35:59;;;;;;;4.10;2.87;;;;;;;14.38;77.42;100996.22;5161853;55;1138723;-74
2021/05/28 14:41:05;;;;;;;2.75;2.10;;;;;;;14.33;76.91;100992.64;5231882;55;1139397;-74
2021/05/28 14:46:16;;;;;;;3.40;2.98;;;;;;;14.33;76.55;100995.30;5229440;55;1138572;-74
2021/05/28 14:51:22;;;;;;;3.72;3.08;;;;;;;14.43;77.43;100988.23;5239779;55;1138413;-75
2021/05/28 14:56:28;;;;;;;6.03;2.30;;;;;;;14.61;77.22;100985.81;5239318;55;1138366;-73
2021/05/28 15:01:34;;;;;;;2.97;1.70;;;;;;;14.87;76.77;100960.03;5200137;55;1138576;-74
2021/05/28 15:06:41;;;;;;;4.17;2.73;;;;;;;14.87;76.77;100960.03;5206459;55;1138576;-73
2021/05/28 15:11:47;;;;;;;1.70;1.60;;;;;;;15.15;77.14;100979.23;5239974;55;1138801;-74
2021/05/28 15:16:52;;;;;;;93.80;49.30;;;;;;;15.42;76.60;100979.94;5239743;55;1138746;-74
2021/05/28 15:21:59;;;;;;;22.47;17.23;;;;;;;15.68;74.03;100969.09;5239617;55;1142683;-73
2021/05/28 15:27:06;;;;;;;3.87;2.57;;;;;;;15.69;73.34;100975.27;5239674;55;1142688;-74
2021/05/28 15:32:11;;;;;;;41.85;34.18;;;;;;;15.83;74.40;100962.84;5239952;55;1148613;-73
2021/05/28 15:37:18;;;;;;;8.43;4.05;;;;;;;15.99;74.06;100966.25;5238685;55;1142718;-75
2021/05/28 15:42:24;;;;;;;529.17;233.23;;;;;;;16.12;74.00;100974.30;5239045;55;1138415;-78
2021/05/28 15:47:30;;;;;;;42.77;21.53;;;;;;;16.04;71.81;100978.69;5237459;55;1147058;-78
2021/05/28 15:52:36;;;;;;;114.50;72.93;;;;;;;15.86;71.66;100977.23;5237643;55;1142979;-76
2021/05/28 15:57:42;;;;;;;22.20;18.40;;;;;;;15.69;70.61;100972.59;5237359;55;1144606;-76
2021/05/28 16:02:48;;;;;;;8.67;2.80;;;;;;;15.49;70.71;100970.38;5236910;55;1142573;-75
2021/05/28 16:07:54;;;;;;;7.03;6.10;;;;;;;15.54;71.97;100975.30;5238312;55;1138322;-75
2021/05/28 16:13:00;;;;;;;2.90;2.23;;;;;;;15.72;72.25;100971.83;5201138;55;1138691;-77
2021/05/28 16:18:08;;;;;;;6.20;5.67;;;;;;;15.79;71.38;100968.09;5251267;55;1138615;-77
2021/05/28 16:23:14;;;;;;;5.72;2.20;;;;;;;15.80;70.61;100967.11;5239142;55;1138435;-77
2021/05/28 16:28:21;;;;;;;9.65;7.55;;;;;;;15.70;70.21;100967.12;5231580;55;1138442;-77
2021/05/28 16:33:27;;;;;;;4.07;3.73;;;;;;;15.68;66.58;100969.58;5150151;55;1138486;-76
2021/05/28 16:38:34;;;;;;;2.00;1.90;;;;;;;15.81;63.90;100962.13;5151812;56;1138555;-79
2021/05/28 16:43:40;;;;;;;3.73;2.30;;;;;;;15.93;62.47;100958.31;5150774;56;1138530;-77
2021/05/28 16:48:46;;;;;;;1.77;1.23;;;;;;;15.81;58.46;100962.97;5151684;56;1138270;-81
2021/05/28 16:53:53;;;;;;;2.50;1.90;;;;;;;15.56;61.33;100974.70;5150483;56;1138674;-77
2021/05/28 16:58:58;;;;;;;15.83;10.00;;;;;;;15.31;61.26;100978.22;5151426;56;1138755;-77
2021/05/28 17:04:06;;;;;;;21.23;13.23;;;;;;;15.14;62.37;100987.72;5150944;56;1142678;-78
2021/05/28 17:09:11;;;;;;;5.37;4.03;;;;;;;15.03;62.66;100992.33;5151471;56;1143131;-75
2021/05/28 17:14:17;;;;;;;16.27;8.77;;;;;;;14.92;62.15;100993.28;5151421;56;1138757;-79
2021/05/28 17:19:23;;;;;;;18.70;9.70;;;;;;;14.90;63.72;100989.06;5151459;56;1140805;-79
2021/05/28 17:24:28;;;;;;;8.97;6.13;;;;;;;14.89;64.34;100984.23;5150922;56;1140593;-76
2021/05/28 17:29:34;;;;;;;11.17;6.47;;;;;;;14.91;64.76;100987.60;5150528;56;1138463;-75
2021/05/28 17:34:40;;;;;;;8.07;4.07;;;;;;;15.00;65.35;100987.27;5151039;56;1140567;-77
2021/05/28 17:39:46;;;;;;;3.57;3.27;;;;;;;15.07;65.32;100985.75;5151122;56;1138401;-78
2021/05/28 17:44:52;;;;;;;11.43;5.20;;;;;;;15.10;64.89;100987.66;5151169;56;1138528;-74
2021/05/28 17:49:58;;;;;;;14.90;7.33;;;;;;;15.06;64.78;100992.91;5150120;56;1140669;-79
2021/05/28 17:55:06;;;;;;;13.30;7.77;;;;;;;15.01;64.70;100995.12;5150903;56;1140994;-80
2021/05/28 18:00:15;;;;;;;11.93;6.80;;;;;;;14.91;64.21;100999.59;5150861;56;1141304;-76
2021/05/28 18:05:21;;;;;;;12.80;7.10;;;;;;;14.88;64.72;100997.67;5151307;56;1141246;-76
2021/05/28 18:10:28;;;;;;;28.10;10.43;;;;;;;14.85;65.08;100999.27;5150885;56;1141286;-77
2021/05/28 18:15:34;;;;;;;19.97;9.60;;;;;;;14.76;64.40;101002.27;5150781;56;1143114;-77
2021/05/28 18:20:40;;;;;;;26.20;10.57;;;;;;;14.72;64.88;100996.84;5150636;56;1141038;-76
2021/05/28 18:25:49;;;;;;;28.20;9.43;;;;;;;14.68;64.76;100998.08;5151080;56;1143066;-79
2021/05/28 18:30:55;;;;;;;21.93;9.73;;;;;;;14.63;64.78;101003.83;5150424;56;1141187;-79
2021/05/28 18:36:01;;;;;;;16.37;7.80;;;;;;;14.53;64.46;101003.40;5151283;56;1141014;-76
2021/05/28 18:41:08;;;;;;;24.03;12.27;;;;;;;14.43;64.59;101008.69;5150779;56;1141040;-79
2021/05/28 18:46:17;;;;;;;21.40;12.73;;;;;;;14.38;64.79;101010.86;5151171;56;1143375;-79
2021/05/28 18:51:22;;;;;;;20.12;10.63;;;;;;;14.33;64.98;101019.26;5145539;56;1143346;-78
2021/05/28 18:56:28;;;;;;;16.75;9.90;;;;;;;14.25;64.87;101015.55;5150622;56;1143139;-77
2021/05/28 19:01:33;;;;;;;15.80;8.25;;;;;;;14.13;64.73;101020.58;5150623;56;1141154;-76
2021/05/28 19:06:46;;;;;;;12.13;8.13;;;;;;;13.98;65.07;101032.87;5149838;56;1140855;-78
2021/05/28 19:11:48;;;;;;;12.23;6.73;;;;;;;13.91;65.44;101042.80;5147114;56;1140982;-77
2021/05/28 19:16:54;;;;;;;11.53;6.60;;;;;;;13.87;65.74;101053.35;5106313;55;1140773;-78
2021/05/28 19:22:01;;;;;;;14.77;5.27;;;;;;;13.82;65.97;101064.84;5109597;56;1140731;-80
2021/05/28 19:27:06;;;;;;;11.27;6.57;;;;;;;13.70;65.97;101064.05;5118472;56;1140976;-80
2021/05/28 19:32:12;;;;;;;18.60;8.97;;;;;;;13.62;66.74;101078.42;5117238;56;1141036;-79
2021/05/28 19:37:18;;;;;;;25.20;12.15;;;;;;;13.63;67.27;101080.13;5118513;56;1141057;-76
2021/05/28 19:42:24;;;;;;;28.62;13.15;;;;;;;13.62;67.50;101090.39;5116429;56;1143493;-78
2021/05/28 19:47:32;;;;;;;34.87;14.63;;;;;;;13.57;67.79;101094.77;5116889;56;1143317;-79
2021/05/28 19:52:42;;;;;;;40.13;20.47;;;;;;;13.45;67.87;101091.75;5116485;56;1143288;-76
2021/05/28 19:57:45;;;;;;;58.60;26.77;;;;;;;13.39;67.88;101100.23;5118205;56;1143608;-78
2021/05/28 20:02:52;;;;;;;74.07;36.97;;;;;;;13.31;67.44;101109.28;5120491;56;1143306;-81
2021/05/28 20:07:59;;;;;;;59.97;27.37;;;;;;;13.24;67.67;101113.41;5120805;56;1143536;-75
2021/05/28 20:18:30;;;;;;;69.87;33.35;;;;;;;13.09;67.61;101126.05;5118391;56;1143071;-79
2021/05/28 20:23:36;;;;;;;74.67;37.27;;;;;;;12.94;68.07;101121.46;5117593;56;1143119;-78
2021/05/28 20:28:42;;;;;;;35.47;18.27;;;;;;;12.75;67.83;101119.86;5117274;56;1143010;-80
2021/05/28 20:33:49;;;;;;;41.30;19.47;;;;;;;12.47;68.00;101123.78;5117477;56;1142775;-79
2021/05/28 20:38:55;;;;;;;37.93;20.27;;;;;;;12.34;68.44;101128.33;5117706;56;1142887;-76
2021/05/28 20:44:01;;;;;;;40.97;21.60;;;;;;;12.36;69.20;101133.05;5119355;56;1143150;-79
2021/05/28 20:49:08;;;;;;;33.43;17.87;;;;;;;12.41;69.56;101128.69;5117172;56;1142902;-77
2021/05/28 20:54:14;;;;;;;37.90;18.33;;;;;;;12.44;69.81;101136.42;5120310;56;1143244;-77
2021/05/28 20:59:19;;;;;;;49.73;24.45;;;;;;;12.44;69.85;101137.27;5118785;56;1142800;-78
2021/05/28 21:09:32;;;;;;;51.23;23.17;;;;;;;12.31;69.82;101142.66;4950630;58;1143279;-78
2021/05/28 21:14:40;;;;;;;38.23;20.90;;;;;;;12.13;69.54;101145.83;5143022;56;1143036;-78
2021/05/28 21:19:45;;;;;;;50.13;23.40;;;;;;;12.02;69.58;101153.73;5162450;56;1142611;-78
2021/05/28 21:24:51;;;;;;;46.37;23.50;;;;;;;11.92;70.09;101153.55;5167717;56;1142675;-77
2021/05/28 21:29:57;;;;;;;48.50;25.47;;;;;;;11.87;70.08;101153.05;5175938;56;1142811;-80
2021/05/28 21:35:05;;;;;;;37.37;19.03;;;;;;;11.61;70.11;101158.86;5176174;56;1143296;-78
2021/05/28 21:40:14;;;;;;;31.60;17.30;;;;;;;11.46;70.48;101156.83;5175952;56;1142549;-83
2021/05/28 21:45:21;;;;;;;35.10;17.48;;;;;;;11.41;70.75;101155.48;5176424;56;1142820;-79
2021/05/28 21:50:27;;;;;;;30.72;16.90;;;;;;;11.44;71.05;101157.44;5176360;56;1142865;-77
2021/05/28 21:55:35;;;;;;;34.60;17.47;;;;;;;11.50;71.19;101159.64;5176068;56;1142649;-79
2021/05/28 22:00:40;;;;;;;24.67;13.43;;;;;;;11.53;71.43;101150.16;5175912;56;1142555;-79
2021/05/28 22:05:47;;;;;;;23.23;12.40;;;;;;;11.58;71.53;101146.70;5173904;56;1143119;-78
2021/05/28 22:10:53;;;;;;;24.37;14.07;;;;;;;11.38;70.52;101151.72;5146045;56;1143115;-81
2021/05/28 22:15:59;;;;;;;22.80;13.27;;;;;;;10.96;70.41;101161.72;5172152;56;1142594;-78
2021/05/28 22:21:05;;;;;;;33.73;16.17;;;;;;;10.64;70.73;101153.33;5174631;56;1142730;-84
2021/05/28 22:26:13;;;;;;;25.97;12.27;;;;;;;10.56;71.30;101161.77;5171217;56;1142689;-81
2021/05/28 22:36:42;;;;;;;18.73;10.30;;;;;;;10.31;71.69;101168.80;5162056;56;1142697;-83
2021/05/28 22:41:51;;;;;;;17.53;9.20;;;;;;;10.21;72.34;101169.42;5161770;56;1142913;-74
2021/05/28 22:46:59;;;;;;;12.77;8.03;;;;;;;10.16;72.49;101173.27;5161930;56;1140797;-77
2021/05/28 22:52:05;;;;;;;11.67;7.43;;;;;;;10.18;72.63;101166.97;5162080;56;1140869;-77
2021/05/28 22:57:11;;;;;;;15.63;8.90;;;;;;;10.34;73.14;101166.81;5162227;56;1141098;-80
2021/05/28 23:02:17;;;;;;;12.97;7.27;;;;;;;10.34;73.14;101166.81;5162308;56;1141010;-75
2021/05/28 23:07:23;;;;;;;8.53;6.50;;;;;;;10.41;72.96;101170.72;5162446;56;1140984;-82
2021/05/28 23:12:46;;;;;;;9.75;7.08;;;;;;;10.39;72.73;101169.97;5162543;56;1138880;-77
2021/05/28 23:17:52;;;;;;;10.00;6.30;;;;;;;10.37;72.93;101175.02;5162572;56;1138847;-76
2021/05/28 23:22:58;;;;;;;13.13;7.27;;;;;;;10.36;72.94;101170.67;5162850;56;1141039;-74
2021/05/28 23:28:05;;;;;;;16.70;8.80;;;;;;;10.35;72.44;101175.12;5162715;56;1141074;-79